NWS Home NWS Lubbock West Texas Mesonet                      Daily Summary For 05/04/2021

Latest   N   C   S   Daily Sum   3hrΔ   24hrΔ   Soil Data 
Site Map   24hr Precip   72hr Precip   Google Plot


Station Time of Last Max Temp Min Temp Max/Min Dew Pt. Max/Min RH 10m Avg Wind 2m Avg Wind Peak Gust @ 33ft (mph) Potential Evapotranspiration
mm/day or in/day
Rain Sum Solar Rad
MJ/m^2
% Clear Day Red Flag
Abernathy 5ENE 11:59 PM 68 48 48 /38 91 / 35 12.5  (NE) 9.7 35.1 mph 18° @ 0210 AM 2.8 or 0.11 0.00 27.5 202.7 0
Adrian 6WSW 11:59 PM 63 42 44 /34 93 / 40 10.1  (N) 8.1 28.6 mph 4° @ 1210 AM 2 or 0.08 0.01 30 230.4 0
Aiken 3WSW 11:59 PM 66 48 48 /37 93 / 36 13.1  (N) 9.7 37.8 mph 16° @ 1206 AM 2.5 or 0.1 0.00 28.6 212.4 0
Amarillo 15NNW 11:59 PM 67 46 47 /31 92 / 30 9.4  (N) 7.3 21.6 mph 3° @ 0935 AM 2 or 0.08 0.02 28.8 224.4 0
Amarillo 7SSE 11:59 PM 66 44 49 /31 100 / 30 10.8  (N) 8.2 27.9 mph 3° @ 1249 AM 2.3 or 0.09 0.03 28.5 219.3 0
Amarillo 9NNE 11:59 PM 66 46 47 /31 95 / 33 9.8  (N) 8 23.2 mph 350° @ 1218 PM 2.3 or 0.09 0.01 30.5 236.6 0
Amherst 1NE 11:59 PM 66 46 47 /39 92 / 38 11  (N) 7.7 36.2 mph 357° @ 0128 AM 2.3 or 0.09 0.01 24.7 182.2 0
Andrews 2E 11:59 PM 70 51 47 /41 85 / 35 11.2  (N) 6.7 30.7 mph 7° @ 0438 AM 3 or 0.12 0.00 24.7 172.6 0
Anton 6SSW 11:55 PM 67 47 46 /39 90 / 37 11.1  (NW) 8.6 29.9 mph 4° @ 0155 AM 2.5 or 0.1 0.00 24 176.1 0
Aspermont 3NE 11:59 PM 72 53 53 /45 88 / 40 11.2  (N) 7.6 29.6 mph 353° @ 0115 AM 2.8 or 0.11 0.00 26.1 189.8 0
Big Bend NP - Castolon 11:59 PM 88 64 51 /25 51 / 13 12.3  (NW) 9.7 27.2 mph 324° @ 0328 AM 5.1 or 0.2 0.00 30.1 192.5 0
Big Bend NP - Persimmon Gap 11:59 PM 83 58 51 /22 57 / 11 15.3  (N) 12.9 43 mph 348° @ 0233 AM 5.3 or 0.21 0.00 28.5 183.6 1
Big Lake 1WNW 11:59 PM 73 55 55 /45 82 / 38 11.5  (N) 9.2 26 mph 330° @ 0153 PM 3 or 0.12 0.00 23.9 162.1 0
Bootleg 11WNW 11:59 PM 64 40 44 /35 100 / 37 10.7  (N) 8 29.6 mph 15° @ 0154 AM 2 or 0.08 0.00 24.8 187.8 0
Borger 7E 11:59 PM 64 47 47 /29 95 / 29 10.3  (N) 7.8 32.9 mph 18° @ 0124 PM 2 or 0.08 0.01 30.2 238.1 0
Boys Ranch 1WSW 11:59 PM 67 47 47 /32 92 / 31 6.1  (NW) 4.7 19.6 mph 10° @ 0156 AM 1.8 or 0.07 0.00 30.8 240.8 0
Brownfield 2S 11:59 PM 67 49 52 /40 89 / 38 11.9  (N) 9.5 37.3 mph 15° @ 0341 AM 2.5 or 0.1 0.01 20.5 147.1 0
Canadian 6E 11:59 PM 66 46 50 /29 98 / 26 13.1  (N) 9.5 30 mph 341° @ 0101 AM 2.5 or 0.1 0.00 29.1 232.4 0
Caprock Canyons State Park 11:59 PM 68 50 51 /35 95 / 30 9.6  (N) 6.6 34.3 mph 24° @ 0210 AM 2.3 or 0.09 0.18 29.3 221.3 0
Childress 2NNE 11:55 PM 72 52 51 /35 91 / 28 12.9  (N) 9.3 35.2 mph 331° @ 1240 AM 3 or 0.12 0.00 24.1 183.5 0
Clarendon 2WSW 11:55 PM 66 49 48 /35 93 / 33 12.9  (N) 9.7 31.6 mph 8° @ 0330 AM 2.5 or 0.1 0.11 28.1 216.1 0
Claude 12SW 11:59 PM 65 45 48 /35 100 / 34 12  (N) 8.5 33.5 mph 359° @ 0212 AM 2.3 or 0.09 0.12 30.3 232.1 0
Clyde 2WNW 11:59 PM 69 53 60 /50 96 / 53 12.4  (NW) 8.8 29.8 mph 334° @ 0706 AM 2.3 or 0.09 0.00 18.7 132.6 0
Colorado City 5NW 11:59 PM 71 54 52 /47 87 / 44 10.6  (N) 7.2 25.9 mph 348° @ 0836 AM 2.8 or 0.11 0.00 21.1 149.7 0
Comanche Springs 11:59 PM 74 47 53 /39 89 / 30 10.2  (N) 8 29.6 mph 325° @ 0115 AM 2.5 or 0.1 0.00 23.2 174.4 0
Coyanosa 2N 11:59 PM 77 54 49 /39 67 / 27 8.5  (N) 6.5 21 mph 331° @ 0103 AM 3.3 or 0.13 0.00 24.8 168.4 0
Crane 1NNW 11:59 PM 74 55 50 /43 76 / 34 9.2  (NE) 7.5 28.7 mph 36° @ 1203 AM 3 or 0.12 0.00 24.6 168.1 0
Crowell 1E 11:59 PM 72 53 55 /43 90 / 38 11.6  (NE) 8.9 32.1 mph 7° @ 1203 AM 2.8 or 0.11 0.00 24.3 182.3 0
Dell City 11:59 PM 76 47 51 /38 80 / 26 8.4  (N) 5.4 29.1 mph 13° @ 1214 AM 3 or 0.12 0.00 29.1 200.2 0
Denver City 7WNW 11:55 PM 67 48 46 /41 90 / 41 12  (N) 8.7 31 mph 16° @ 0525 AM 2.5 or 0.1 0.01 21.9 156.5 0
Dimmitt 2NE 11:55 PM 65 43 47 /36 100 / 38 12.3  (N) 9.6 34.9 mph 6° @ 0155 AM 2.3 or 0.09 0.00 29.1 218.5 0
Doole 3WNW 11:59 PM 74 58 60 /50 88 / 44 12.9  (N) 10.8 32.1 mph 320° @ 1108 AM 3.3 or 0.13 0.00 27 186.2 0
Dora NM 2SW 11:55 PM 64 43 45 /39 94 / 41 10.4  (N) 7.5 31 mph 10° @ 1205 AM 2 or 0.08 0.01 23.6 173 0
Dozier 3W 11:59 PM 69 51 53 /33 100 / 27 11.4  (N) 7.6 33.8 mph 6° @ 0536 AM 2.5 or 0.1 0.48 26.5 205.6 0
Earth 9WSW 11:59 PM 66 43 46 /39 93 / 39 10  (N) 7.6 30.2 mph 357° @ 1241 AM 2 or 0.08 0.00 24.5 181.6 0
Endee NM 2SW 11:59 PM 65 42 43 /36 91 / 39 8.6  (N) 6.3 29.8 mph 25° @ 0130 AM 1.8 or 0.07 0.01 25.1 191.9 0
Estelline 3SSE 11:59 PM 74 53 53 /34 90 / 25 11.8  (NW) 8.6 30.7 mph 11° @ 0139 AM 3 or 0.12 0.00 25.8 196.5 0
Floydada 2NNE 11:55 PM 67 49 49 /38 95 / 37 12.6  (N) 9.1 35.7 mph 359° @ 1205 AM 2.5 or 0.1 0.00 26.6 197 0
Fluvanna 3WNW 11:55 PM 67 52 50 /44 90 / 45 12.1  (N) 9.6 33.2 mph 0° @ 0355 AM 2.5 or 0.1 0.00 20.6 147.3 0
Fort Chadbourne 11:59 PM 72 55 57 /50 89 / 47 10  (N) 6.1 30.5 mph 1° @ 0216 AM 2.5 or 0.1 0.00 20.4 142.7 0
Fort Lancaster 11:59 PM 78 58 58 /46 75 / 33 9.6  (N) 6.3 36.2 mph 9° @ 1208 AM 3.3 or 0.13 0.00 22.7 152 0
Fort Lewis CO 11:59 PM 63 28 36 /21 100 / 21 9.9  (E) 7.6 30 mph 273° @ 0129 PM 1.8 or 0.07 0.00 26.9 217.2 0
Fort McKavett 11:59 PM 74 55 60 /51 97 / 46 9.3  (N) 6.4 25.7 mph 350° @ 0115 PM 3 or 0.12 0.00 27.5 185.1 0
Friona 2NE 11:55 PM 66 42 44 /36 91 / 35 10.9  (N) 8.5 30.8 mph 0° @ 1250 AM 2.3 or 0.09 0.00 28.5 214.6 0
Fritch 1WNW 11:59 PM 64 48 47 /33 94 / 35 9.5  (NE) 7.3 27.6 mph 34° @ 1223 AM 2 or 0.08 0.06 29.9 235.5 0
Gail 2ESE 11:59 PM 70 53 51 /44 88 / 41 10.4  (N) 7.2 27.4 mph 10° @ 0416 AM 2.5 or 0.1 0.01 21.9 156 0
Goodlett 3W 11:55 PM 72 53 52 /39 90 / 31 12.3  (N) 9.3 28.2 mph 3° @ 1210 AM 3 or 0.12 0.00 24.1 183.3 0
Goodnight 11:59 PM 65 47 48 /35 95 / 33 12.4  (N) 9.4 33 mph 10° @ 0326 AM 2.3 or 0.09 0.19 27.7 212.8 0
Graham 5SSW 11:59 PM 69 52 49 /41 89 / 37 11.5  (N) 8.8 37.3 mph 1° @ 1206 AM 2.5 or 0.1 0.00 19.6 141.1 0
Guadalupe Mtns Natl Park 11:59 PM 65 39 40 /31 92 / 35 5.3  (NE) 3.5 19.7 mph 39° @ 1207 AM 2 or 0.08 0.00 29.2 198 0
Guthrie 10WSW 11:59 PM 73 53 52 /39 87 / 32 12.6  (NW) 9 35.1 mph 354° @ 0312 AM 3 or 0.12 0.00 26.1 192 0
Hackberry 2SSE 11:59 PM 73 52 52 /39 90 / 31 12.7  (NW) 9.4 35.7 mph 343° @ 1227 AM 3 or 0.12 0.00 24.1 179.6 0
Happy 1E 11:59 PM 66 44 48 /34 96 / 32 12.6  (NE) 9.9 34.3 mph 21° @ 1211 AM 2.5 or 0.1 0.01 30.7 232.6 0
Hart 3N 11:55 PM 65 44 48 /37 96 / 36 12.3  (N) 9 33.3 mph 2° @ 0150 AM 2.3 or 0.09 0.00 29.1 217.8 0
Haskell 1NW 11:55 PM 70 53 54 /49 91 / 51 13.2  (N) 10.3 29.9 mph 351° @ 0120 AM 2.8 or 0.11 0.00 25.8 187.8 0
Hefner 1SW 11:59 PM 72 53 55 /48 91 / 44 12.4  (NW) 8.2 32 mph 343° @ 1208 AM 2.8 or 0.11 0.00 23.6 174.3 0
Hereford 2NW 11:55 PM 66 44 45 /36 94 / 38 9.9  (N) 7.9 28.7 mph 16° @ 0230 AM 2.3 or 0.09 0.00 28.6 217.4 0
Hobbs NM 5NW 11:59 PM 68 48 43 /37 82 / 33 10.8  (N) 9.1 29.7 mph 29° @ 0423 AM 2.8 or 0.11 0.00 22.8 161.5 0
Jayton 1SSE 11:55 PM 72 53 51 /44 87 / 39 11.2  (NW) 8.3 30.9 mph 347° @ 1230 AM 2.8 or 0.11 0.00 24.1 175.4 0
Junction 1SSW 11:59 PM 76 54 63 /52 92 / 45 7.7  (N) 5.9 22 mph 15° @ 0146 PM 2.8 or 0.11 0.00 24.7 164.6 0
Kent 9E 11:59 PM 72 47 45 /36 78 / 28 6.7  (N) 4.9 20 mph 7° @ 0103 AM 2.5 or 0.1 0.00 23.8 158.7 0
Knox City 3NW 11:59 PM 73 53 54 /46 92 / 40 10.8  (N) 7.7 30.7 mph 347° @ 0129 AM 2.8 or 0.11 0.00 24.4 180 0
Lake Alan Henry 1NW 11:59 PM 71 54 50 /45 85 / 40 8.9  (N) 5.1 27.8 mph 9° @ 0337 AM 2.5 or 0.1 0.00 19.8 143 0
Lake McClellan 2NW 11:59 PM 64 47 48 /32 96 / 31 14.4  (N) 11.1 35.6 mph 4° @ 0449 AM 2.5 or 0.1 0.40 27.5 212.8 0
Lamesa 2SE 11:55 PM 67 51 50 /44 89 / 46 9.6  (N) 4.6 30.2 mph 17° @ 0405 AM 2.3 or 0.09 0.01 21.7 154.4 0
Lesley 2S 11:59 PM 71 51 52 /35 92 / 28 11.8  (NW) 8.5 31.6 mph 360° @ 1013 AM 2.8 or 0.11 0.04 25.4 194 0
Levelland 4S 11:59 PM 68 47 47 /37 90 / 36 11.4  (N) 9 34 mph 358° @ 0205 AM 2.5 or 0.1 0.00 24.5 177.8 0
Lomax 1SSE 11:59 PM 70 54 51 /44 80 / 39 11  (N) 8.6 29.4 mph 348° @ 0746 AM 2.8 or 0.11 0.00 24.5 171 0
Lubbock 3WNW TTU 11:55 PM 69 50 47 /39 89 / 34 9.5  (N) 6.8 31.9 mph 10° @ 0200 AM 2.5 or 0.1 0.01 23.5 171.4 0
McAdoo 3NNW 11:59 PM 68 49 50 /37 93 / 36 13.6  (NW) 9.9 40.6 mph 12° @ 0144 AM 2.8 or 0.11 0.00 23.7 174.5 0
McCamey 1SSW 11:59 PM 75 56 54 /43 73 / 33 9  (NE) 7.3 30.2 mph 33° @ 1229 AM 3 or 0.12 0.00 23 156.1 0
McLean 1E 11:55 PM 65 47 48 /33 100 / 32 13  (N) 10.5 27.8 mph 10° @ 0615 AM 2.5 or 0.1 0.70 27.8 216.3 0
Memphis 1NE 11:59 PM 71 52 53 /33 94 / 26 11.6  (N) 8.7 32.9 mph 347° @ 0210 AM 2.8 or 0.11 0.11 27 207.3 0
Menard 2NW 11:59 PM 73 57 60 /52 99 / 49 9.5  (NE) 7.6 29.8 mph 322° @ 1023 AM 2.8 or 0.11 0.00 25.3 171.1 0
Mertzon 3NNE 11:59 PM 74 52 56 /47 98 / 39 9.5  (N) 6.7 27.1 mph 5° @ 0159 PM 2.8 or 0.11 0.00 23.6 161.3 0
Morton 1ENE 11:55 PM 66 47 45 /40 92 / 40 10.7  (N) 7.8 31.9 mph 8° @ 0115 AM 2.3 or 0.09 0.01 22.6 165.5 0
Muleshoe 2SSW 11:55 PM 66 44 46 /40 93 / 39 9.3  (N) 6.8 29.5 mph 355° @ 1205 AM 2 or 0.08 0.00 26.2 194.4 0
New Home 11:59 PM 69 50 49 /38 90 / 35 9.5  (NE) 7.1 27.9 mph 26° @ 0457 AM 2.5 or 0.1 0.00 21.5 155.4 0
Northfield 1S 11:55 PM 73 51 53 /33 97 / 25 10.7  (NW) 7.7 36.5 mph 16° @ 0105 AM 2.8 or 0.11 0.05 25.4 191.7 0
O'Donnell 1N 11:59 PM 68 51 50 /42 90 / 40 11.4  (N) 8.6 36.2 mph 18° @ 1214 AM 2.5 or 0.1 0.00 20.4 146.3 0
Odell 4ENE 11:59 PM 72 53 53 /42 92 / 35 12.8  (N) 9.4 29.8 mph 4° @ 1236 AM 2.8 or 0.11 0.01 26.3 200.1 0
Olton 6S 11:55 PM 66 46 47 /39 93 / 39 11.9  (N) 9.6 32.6 mph 356° @ 1215 AM 2.5 or 0.1 0.01 26.2 194.2 0
Paducah 10SW 11:59 PM 72 52 52 /37 89 / 29 13.4  (NW) 7.3 35.1 mph 343° @ 0215 AM 3 or 0.12 0.01 23.9 178.1 0
Palo Duro 4E (JA Ranch) 11:59 PM 68 44 51 /36 94 / 32 11.2  (N) 8.2 32.5 mph 7° @ 0300 AM 2.3 or 0.09 0.08 26 199.5 0
Palo Duro Canyon SP Floor 11:59 PM 71 47 49 /34 94 / 28 6.4  (NW) 2.7 20.9 mph 340° @ 1105 AM 2 or 0.08 0.08 28.1 215.8 0
Palo Duro Canyon State Park Rim 11:59 PM 67 45 49 /32 100 / 30 8.9  (N) 4.8 26.3 mph 7° @ 0203 AM 2 or 0.08 0.03 29.2 223.3 0
Palo Duro Reservoir 1NW 11:59 PM 63 46 47 /29 93 / 30 10.6  (N) 8 30.5 mph 3° @ 0138 PM 2 or 0.08 0.00 27.6 223 0
Pampa 2E 11:55 PM 63 46 46 /32 98 / 33 12.3  (N) 9.8 28.7 mph 351° @ 1210 AM 2.3 or 0.09 0.11 28 219.3 0
Panhandle 1SSW 11:59 PM 63 46 48 /35 100 / 37 11.3  (N) 9.1 26.1 mph 356° @ 0256 AM 2 or 0.08 0.17 28.7 222.4 0
Plains 3N 11:55 PM 67 48 45 /40 90 / 40 12.2  (N) 9.8 34 mph 359° @ 0155 AM 2.5 or 0.1 0.00 22.2 159.8 0
Plainview 1S 11:59 PM 67 48 48 /36 91 / 33 10.6  (N) 8.1 36.2 mph 12° @ 1221 AM 2.5 or 0.1 0.00 27.9 207.4 0
Post 1NE 11:59 PM 71 53 49 /41 88 / 35 9.7  (N) 6.3 34 mph 350° @ 1208 AM 2.5 or 0.1 0.00 18.6 134.8 0
Ralls 1SE 11:59 PM 68 50 49 /37 92 / 33 11.9  (N) 9.3 36.2 mph 358° @ 1202 AM 2.8 or 0.11 0.00 21.7 158.7 0
Reese Center 11:59 PM 68 49 47 /36 89 / 34 12.3  (N) 8.2 40.6 mph 5° @ 0210 AM 2.8 or 0.11 0.00 23.9 174.8 0
Roaring Springs 3N 11:59 PM 69 51 51 /36 93 / 31 12.5  (NW) 8.5 37.3 mph 341° @ 0141 AM 2.8 or 0.11 0.00 24.8 184.2 0
Romero 11SSW 11:59 PM 64 42 43 /32 89 / 38 9.6  (N) 7.3 34.2 mph 3° @ 1214 AM 2 or 0.08 0.00 28.2 219.6 0
Rotan 5W 11:59 PM 70 54 55 /47 88 / 45 11.7  (N) 8.9 26.8 mph 337° @ 0437 AM 2.8 or 0.11 0.01 28.2 202.8 0
San Angelo 7NW 11:55 PM 74 56 55 /48 83 / 42 10.4  (N) 7.9 27 mph 336° @ 1215 PM 3 or 0.12 0.00 23.3 160.4 0
Seagraves 1SW 11:59 PM 68 50 47 /41 89 / 38 11  (N) 8.4 35.1 mph 355° @ 1232 AM 2.5 or 0.1 0.00 21.6 153.8 0
Segovia 7SSW 11:59 PM 74 58 63 /51 89 / 47 11.1  (N) 8.6 26.5 mph 9° @ 1240 AM 3.3 or 0.13 0.00 28 185.4 0
Seminole 2NNE 11:55 PM 68 50 46 /42 86 / 40 12  (N) 9.1 31.9 mph 11° @ 0325 AM 2.8 or 0.11 0.00 21.3 150.8 0
Seymour 3NW 11:55 PM 71 53 56 /48 93 / 47 11.5  (NW) 8.4 30 mph 316° @ 1205 AM 2.5 or 0.1 0.00 20.8 154.7 0
Sierra Blanca 1SSE 11:59 PM 75 45 41 /30 74 / 20 7.2  (N) 5.3 25.9 mph 356° @ 1239 AM 2.8 or 0.11 0.00 27.4 183 0
Silverton 7ESE 11:55 PM 66 48 50 /37 99 / 36 13.5  (N) 10 37.6 mph 10° @ 0105 AM 2.5 or 0.1 0.09 25.7 193.1 0
Slaton 2NE 11:59 PM 69 51 48 /37 88 / 33 11.4  (N) 8.6 34 mph 353° @ 0356 AM 2.8 or 0.11 0.00 22.4 162.9 0
Smyer 11:59 PM 68 48 47 /35 90 / 34 11  (NW) 8.8 34.3 mph 10° @ 0422 AM 2.5 or 0.1 0.00 23.7 172.8 0
Snyder 3E 11:55 PM 71 53 50 /45 89 / 43 12.3  (N) 5 27 mph 346° @ 0925 AM 2.8 or 0.11 0.00 22.2 158.3 0
Snyder 3SSW 11:59 PM 70 53 52 /47 91 / 46 10.8  (N) 7.9 26 mph 349° @ 1249 AM 2.5 or 0.1 0.00 23.3 166.3 0
South Plains 3ENE 11:59 PM 68 49 50 /36 96 / 33 12.1  (N) 9.4 32.6 mph 3° @ 1233 AM 2.8 or 0.11 0.01 26.9 200.8 0
Spur 1W 11:55 PM 71 52 50 /40 85 / 35 10.9  (N) 8.7 30.8 mph 20° @ 0255 AM 2.8 or 0.11 0.00 22.6 165.3 0
St. Lawrence 5SW 11:59 PM 71 54 53 /45 84 / 39 13.7  (N) 11 30.7 mph 349° @ 0734 AM 3.3 or 0.13 0.00 25.6 175.8 0
Stamford 5ESE 11:59 PM 69 54 56 /49 92 / 50 13.7  (NW) 9.8 30.8 mph 355° @ 0145 AM 2.5 or 0.1 0.00 23.3 168.3 0
Sterling City 4WSW 11:59 PM 71 50 55 /47 100 / 44 8.5  (N) 6.1 25.9 mph 321° @ 0427 PM 2.3 or 0.09 0.00 16.7 115.6 0
Stinnett 1NNW 11:59 PM 63 46 48 /31 100 / 32 12  (N) 9.2 29.1 mph 11° @ 1231 AM 2.3 or 0.09 0.02 28.5 225.7 0
Stratford 4WNW 11:59 PM 64 44 43 /31 83 / 34 10.3  (N) 7.5 24.3 mph 358° @ 1224 AM 2 or 0.08 0.00 29.9 240.3 0
Sundown 8WSW 11:55 PM 68 48 45 /39 91 / 36 11.5  (N) 7.5 33 mph 356° @ 0150 AM 2.5 or 0.1 0.00 19.8 142.8 0
Sweetwater 11SW 11:59 PM 68 53 55 /48 91 / 49 11  (N) 7.8 24.5 mph 354° @ 0821 AM 2.3 or 0.09 0.00 20.4 143.6 0
Tahoka 3NNE 11:59 PM 70 50 48 /40 90 / 36 11.2  (N) 8 31.5 mph 3° @ 0303 AM 2.8 or 0.11 0.01 19.2 138.8 0
Tarzan 2WNW 11:59 PM 69 53 52 /44 84 / 42 11.5  (N) 7.9 27.9 mph 4° @ 1243 AM 2.8 or 0.11 0.00 21.2 148.6 0
Tatum NM 2SW 11:55 PM 67 46 45 /40 89 / 40 11.1  (N) 8.3 36 mph 16° @ 0245 AM 2.5 or 0.1 0.00 21.1 151.4 0
Throckmorton 1SW 11:59 PM 70 54 61 /49 98 / 50 9.4  (NW) 5.1 27 mph 359° @ 0106 PM 2.3 or 0.09 0.00 21.5 156.9 0
Truscott 2SE 11:59 PM 72 53 54 /44 90 / 40 11  (N) 7.8 30.2 mph 337° @ 0107 AM 2.5 or 0.1 0.00 23.7 176 0
Tulia 2ENE 11:55 PM 66 45 47 /36 94 / 35 12.2  (N) 9.4 40 mph 22° @ 1225 AM 2.5 or 0.1 0.02 25.7 193.4 0
Turkey 2WSW 11:55 PM 69 51 51 /38 94 / 33 12.5  (NW) 9.7 35.5 mph 352° @ 1245 AM 2.8 or 0.11 0.19 23.8 179.6 0
Umbarger 3NNE 11:59 PM 65 44 47 /34 95 / 33 11.6  (N) 9.1 31.1 mph 8° @ 0328 AM 2.3 or 0.09 0.00 29 221.4 0
Van Horn 3ENE 11:59 PM 75 48 43 /33 73 / 23 11.4  (NE) 8.4 27 mph 31° @ 1223 AM 3.6 or 0.14 0.00 29.3 195.4 0
Vega 4E 11:59 PM 64 43 45 /31 94 / 34 9.8  (N) 7.6 30.7 mph 24° @ 0331 AM 2 or 0.08 0.00 31 238.5 0
Vigo Park 11:59 PM 66 46 48 /34 96 / 32 10.9  (N) 7.7 35 mph 11° @ 0106 AM 2.3 or 0.09 0.04 25.6 193.7 0
Wall 2E 11:59 PM 74 56 59 /50 87 / 44 11.3  (N) 9.2 30 mph 343° @ 1207 PM 3 or 0.12 0.00 25 171.2 0
Weinert 2NNE 11:59 PM 70 53 54 /47 88 / 46 11.6  (N) 8.6 28.5 mph 348° @ 1221 AM 2.5 or 0.1 0.01 22.9 168.2 0
Welch 11:59 PM 69 50 52 /43 100 / 41 11.1  (N) 8.2 30 mph 13° @ 0435 AM 2.5 or 0.1 0.00 19.7 140.4 0
Wellington 6SE 11:59 PM 70 51 52 /32 94 / 26 M  (W) 11.6 39.5 mph 7° @ 0600 AM 0.5 or 0.02 0.13 28.5 219.4 0
White River Lake 6NW 11:59 PM 70 51 50 /39 88 / 34 13.8  (N) 10 36.2 mph 360° @ 0147 AM 3 or 0.12 0.00 24.2 177.2 0
Wolfforth 6SSW 11:59 PM 69 49 47 /37 91 / 34 12.6  (N) 9.6 37.3 mph 11° @ 0211 AM 2.8 or 0.11 0.00 23.3 168.8 0

WestTexas Mesonet Home    Site Map/Menu  National Weather Service Lubbock   Soil Data   Latest Observation Page   Previous  Date   Next Last